Flight Track Log - Related Links

Times and Time Zones

All times are in EDT time to prevent confusion due to time zone crossing. See the SKW6296 flight status page for this flight to view local times or setup timezone preferences in your user account.

Time Position Orientation Groundspeed Altitude Reporting Facility
EDT Latitude Longitude Course Direction KTS MPH feet Rate Location/Type
Sat 09:01:00 AM 30.3832 -97.6240 280° West  Level FlightAware Approximate
Sat 09:01:08 AM 30.1644 -97.7783 278° West 246 283 5,200  Level Houston Center
Sat 09:02:00 AM 30.4013 -97.7485 276° West  Level FlightAware Approximate
Sat 09:02:09 AM 30.2006 -97.8625 296° West 279 321 7,200  Level Houston Center
Sat 09:03:00 AM 30.4118 -97.8742 276° West  Level FlightAware Approximate
Sat 09:03:10 AM 30.2272 -97.9622 287° West 302 348 9,700  Level Houston Center
Sat 09:04:00 AM 30.4167 -98.0003 270° West  Level FlightAware Approximate
Sat 09:04:12 AM 30.2469 -98.0611 283° West 314 361 11,400  Level Houston Center
Sat 09:05:00 AM 30.4303 -98.1255 278° West  Level FlightAware Approximate
Sat 09:05:13 AM 30.2694 -98.1717 283° West 328 377 13,900  Level Houston Center
Sat 09:06:00 AM 30.4459 -98.2505 278° West  Level FlightAware Approximate
Sat 09:06:14 AM 30.2897 -98.2744 283° West 329 379 15,800  Level Houston Center
Sat 09:07:15 AM 30.3114 -98.3747 284° West 345 397 17,500 1,756 Climbing Houston Center
Sat 09:08:17 AM 30.3342 -98.4867 283° West 354 407 19,400 1,902 Climbing Houston Center
Sat 09:09:18 AM 30.3581 -98.5986 284° West 354 407 21,400 1,721 Climbing Houston Center
Sat 09:10:19 AM 30.3803 -98.7142 283° West 362 417 22,900 1,512 Climbing Houston Center
Sat 09:11:21 AM 30.4047 -98.8314 284° West 371 427 24,500 1,463 Climbing Houston Center
Sat 09:12:22 AM 30.4292 -98.9481 284° West 370 426 25,900 1,426 Climbing Houston Center
Sat 09:13:23 AM 30.4564 -99.0878 283° West 376 433 27,400 1,268 Climbing Houston Center
Sat 09:14:25 AM 30.4797 -99.1994 284° West 382 440 28,500 1,122 Climbing Houston Center
Sat 09:15:26 AM 30.5028 -99.3206 282° West 386 444 29,700 1,082 Climbing Houston Center
Sat 09:16:27 AM 30.5297 -99.4544 283° West 387 445 30,700 780 Climbing Houston Center
Sat 09:17:29 AM 30.5547 -99.5636 285° West 392 451 31,300 732 Climbing Houston Center
Sat 09:18:30 AM 30.5819 -99.6892 284° West 400 460 32,200 1,230 Climbing Houston Center
Sat 09:19:31 AM 30.6111 -99.8339 283° West 384 442 33,800 1,230 Climbing Houston Center
Sat 09:20:32 AM 30.6378 -99.9525 285° West 381 438 34,700 927 Climbing Houston Center
Sat 09:21:34 AM 30.6636 -100.0722 284° West 381 438 35,700 780 Climbing Houston Center
Sat 09:22:35 AM 30.6894 -100.1911 284° West 379 436 36,300 590 Climbing Houston Center
Sat 09:23:36 AM 30.7147 -100.3117 284° West 386 444 36,900 732 Climbing Houston Center
Sat 09:24:38 AM 30.7400 -100.4289 284° West 379 436 37,800 537 Climbing Houston Center
Sat 09:25:39 AM 30.7625 -100.5456 283° West 374 430 38,000 98 Climbing Houston Center
Sat 09:26:40 AM 30.7928 -100.6883 284° West 379 436 38,000  Level Houston Center
Sat 09:27:42 AM 30.8178 -100.8089 284° West 385 443 38,000  Level Houston Center
Sat 09:28:43 AM 30.8417 -100.9303 283° West 386 444 38,000  Level Houston Center
Sat 09:29:44 AM 30.8669 -101.0489 284° West 381 438 38,000  Level Houston Center
Sat 09:30:46 AM 30.8911 -101.1681 283° West 380 437 38,000  Level Houston Center
Sat 09:31:47 AM 30.9153 -101.2844 284° West 375 432 38,000  Level Houston Center
Sat 09:32:42 AM 30.9369 -101.4036 282° West 377 434 38,000  Level Albuquerque Center
Sat 09:33:43 AM 30.9611 -101.5228 283° West 377 434 38,000  Level Albuquerque Center
Sat 09:34:43 AM 30.9847 -101.6411 283° West 377 434 38,000  Level Albuquerque Center
Sat 09:35:44 AM 31.0089 -101.7614 283° West 378 435 38,000  Level Albuquerque Center
Sat 09:36:45 AM 31.0319 -101.8822 283° West 380 437 38,000  Level Albuquerque Center
Sat 09:37:46 AM 31.0564 -102.0083 283° West 396 456 38,000  Level Albuquerque Center
Sat 09:38:46 AM 31.0794 -102.1281 283° West 385 443 38,000  Level Albuquerque Center
Sat 09:39:47 AM 31.1033 -102.2483 283° West 381 438 38,000  Level Albuquerque Center
Sat 09:40:48 AM 31.1269 -102.3686 283° West 381 438 38,000  Level Albuquerque Center
Sat 09:41:49 AM 31.1503 -102.4892 283° West 381 438 38,000  Level Albuquerque Center
Sat 09:42:50 AM 31.1728 -102.6150 282° West 377 434 38,000  Level Albuquerque Center
Sat 09:43:50 AM 31.1958 -102.7342 283° West 377 434 38,000  Level Albuquerque Center
Sat 09:44:51 AM 31.2183 -102.8544 282° West 378 435 38,000  Level Albuquerque Center
Sat 09:45:52 AM 31.2414 -102.9742 283° West 379 436 38,000  Level Albuquerque Center
Sat 09:46:53 AM 31.2636 -103.0936 282° West 378 435 38,000  Level Albuquerque Center
Sat 09:47:53 AM 31.2861 -103.2136 282° West 377 434 38,000  Level Albuquerque Center
Sat 09:48:54 AM 31.3072 -103.3336 282° West 377 434 38,000  Level Albuquerque Center
Sat 09:49:55 AM 31.3300 -103.4544 282° West 379 436 38,000  Level Albuquerque Center
Sat 09:50:56 AM 31.3528 -103.5756 282° West 382 440 38,000  Level Albuquerque Center
Sat 09:51:57 AM 31.3775 -103.7206 281° West 380 437 38,000  Level Albuquerque Center
Sat 09:52:58 AM 31.3969 -103.8233 283° West 383 441 38,000  Level Albuquerque Center
Sat 09:53:59 AM 31.4275 -103.9428 287° West 384 442 38,000  Level Albuquerque Center
Sat 09:54:59 AM 31.4603 -104.0636 288° West 389 448 38,000  Level Albuquerque Center
Sat 09:56:00 AM 31.4986 -104.2094 287° West 391 450 38,000  Level Albuquerque Center
Sat 09:57:01 AM 31.5319 -104.3292 288° West 389 448 38,000  Level Albuquerque Center
Sat 09:58:02 AM 31.5636 -104.4492 287° West 388 447 38,000  Level Albuquerque Center
Sat 09:59:03 AM 31.5942 -104.5683 287° West 385 443 38,000  Level Albuquerque Center
Sat 10:00:04 AM 31.6264 -104.6883 288° West 386 444 38,000 -49 Level Albuquerque Center
Sat 10:01:05 AM 31.6572 -104.8056 287° West 382 440 37,900  Descending Albuquerque Center
Sat 10:02:06 AM 31.6878 -104.9258 287° West 383 441 38,000 49 Climbing Albuquerque Center
Sat 10:03:07 AM 31.7194 -105.0467 287° West 386 444 38,000  Level Albuquerque Center
Sat 10:04:08 AM 31.7511 -105.1697 287° West 390 449 38,000  Level Albuquerque Center
Sat 10:05:09 AM 31.7825 -105.2942 287° West 394 453 38,000  Level Albuquerque Center
Sat 10:06:10 AM 31.8208 -105.4436 287° West 402 463 38,000  Level Albuquerque Center
Sat 10:07:11 AM 31.8525 -105.5686 287° West 401 461 38,000  Level Albuquerque Center
Sat 10:08:12 AM 31.8842 -105.6936 287° West 401 461 38,000  Level Albuquerque Center
Sat 10:09:14 AM 31.9158 -105.8178 287° West 398 458 38,000  Level Albuquerque Center
Sat 10:10:15 AM 31.9486 -105.9481 287° West 395 455 38,000  Level Albuquerque Center
Sat 10:11:16 AM 31.9794 -106.0714 286° West 394 453 38,000  Level Albuquerque Center
Sat 10:12:17 AM 32.0106 -106.1936 287° West 392 451 38,000  Level Albuquerque Center
Sat 10:13:18 AM 32.0403 -106.3172 286° West 392 451 38,000  Level Albuquerque Center
Sat 10:14:20 AM 32.0714 -106.4411 287° West 394 453 38,000  Level Albuquerque Center
Sat 10:15:21 AM 32.1011 -106.5644 286° West 392 451 38,000  Level Albuquerque Center
Sat 10:16:22 AM 32.1322 -106.6875 287° West 392 451 38,000  Level Albuquerque Center
Sat 10:17:23 AM 32.1619 -106.8117 286° West 392 451 38,000  Level Albuquerque Center
Sat 10:18:24 AM 32.1964 -106.9542 286° West 393 452 38,000  Level Albuquerque Center
Sat 10:19:26 AM 32.2283 -107.0867 286° West 391 450 38,000  Level Albuquerque Center
Sat 10:20:27 AM 32.2578 -107.2103 286° West 393 452 38,000  Level Albuquerque Center
Sat 10:21:28 AM 32.2853 -107.3361 285° West 398 458 38,000  Level Albuquerque Center
Sat 10:22:29 AM 32.3136 -107.4600 285° West 396 456 38,000  Level Albuquerque Center
Sat 10:23:31 AM 32.3453 -107.5917 286° West 399 459 38,000  Level Albuquerque Center
Sat 10:24:32 AM 32.3756 -107.7194 286° West 402 463 38,000  Level Albuquerque Center
Sat 10:25:33 AM 32.4050 -107.8478 285° West 403 464 38,000  Level Albuquerque Center
Sat 10:26:35 AM 32.4339 -107.9739 285° West 400 460 38,000  Level Albuquerque Center
Sat 10:27:36 AM 32.4656 -108.1119 285° West 393 452 38,000  Level Albuquerque Center
Sat 10:28:38 AM 32.4944 -108.2311 286° West 383 441 38,000  Level Albuquerque Center
Sat 10:29:39 AM 32.5219 -108.3528 285° West 384 442 38,000  Level Albuquerque Center
Sat 10:30:40 AM 32.5492 -108.4750 285° West 386 444 38,000  Level Albuquerque Center
Sat 10:31:42 AM 32.5767 -108.5964 285° West 384 442 38,000  Level Albuquerque Center
Sat 10:32:43 AM 32.6056 -108.7183 286° West 384 442 38,000  Level Albuquerque Center
Sat 10:33:45 AM 32.6325 -108.8414 285° West 386 444 38,000  Level Albuquerque Center
Sat 10:34:46 AM 32.6594 -108.9631 285° West 383 441 38,000  Level Albuquerque Center
Sat 10:35:48 AM 32.6919 -109.1103 285° West 384 442 38,000  Level Albuquerque Center
Sat 10:36:49 AM 32.7197 -109.2344 285° West 388 447 38,000  Level Albuquerque Center
Sat 10:37:51 AM 32.7469 -109.3594 285° West 391 450 38,000  Level Albuquerque Center
Sat 10:38:52 AM 32.7742 -109.4856 284° West 393 452 38,000  Level Albuquerque Center
Sat 10:39:54 AM 32.8019 -109.6108 285° West 394 453 38,000  Level Albuquerque Center
Sat 10:40:55 AM 32.8292 -109.7372 284° West 396 456 38,000  Level Albuquerque Center
Sat 10:41:57 AM 32.8553 -109.8622 284° West 393 452 38,000  Level Albuquerque Center
Sat 10:42:58 AM 32.8817 -109.9850 284° West 389 448 38,000  Level Albuquerque Center
Sat 10:44:00 AM 32.9169 -110.1358 286° West 394 453 38,000  Level Albuquerque Center
Sat 10:45:01 AM 32.9425 -110.2575 284° West 387 445 38,000  Level Albuquerque Center
Sat 10:46:03 AM 32.9669 -110.3786 284° West 381 438 38,000  Level Albuquerque Center
Sat 10:47:05 AM 32.9928 -110.4981 284° West 377 434 38,000  Level Albuquerque Center
Sat 10:48:06 AM 33.0178 -110.6161 284° West 373 429 38,000  Level Albuquerque Center
Sat 10:49:08 AM 33.0536 -110.7347 290° West 367 422 38,000  Level Albuquerque Center
Sat 10:50:10 AM 33.0850 -110.8503 288° West 366 421 38,000  Level Albuquerque Center
Sat 10:51:11 AM 33.1192 -110.9672 289° West 372 428 38,000  Level Albuquerque Center
Sat 10:52:13 AM 33.1597 -111.1103 289° West 378 435 38,000  Level Albuquerque Center
Sat 10:53:14 AM 33.1939 -111.2319 289° West 384 442 38,000  Level Albuquerque Center
Sat 10:54:16 AM 33.2275 -111.3536 288° West 385 443 38,000  Level Albuquerque Center
Sat 10:55:18 AM 33.2614 -111.4744 289° West 383 441 38,000  Level Albuquerque Center
Sat 10:56:19 AM 33.2942 -111.5964 288° West 384 442 38,000  Level Albuquerque Center
Sat 10:57:21 AM 33.3281 -111.7169 289° West 383 441 38,000  Level Albuquerque Center
Sat 10:58:23 AM 33.3608 -111.8375 288° West 382 440 38,000  Level Albuquerque Center
Sat 10:59:25 AM 33.3939 -111.9569 288° West 380 437 38,000  Level Albuquerque Center
Sat 11:00:26 AM 33.4319 -112.1000 288° West 377 434 38,000  Level Albuquerque Center
Sat 11:01:28 AM 33.4636 -112.2167 288° West 371 427 38,000  Level Albuquerque Center
Sat 11:02:30 AM 33.4953 -112.3331 288° West 368 423 38,000  Level Albuquerque Center
Sat 11:03:31 AM 33.5261 -112.4478 288° West 362 417 38,000  Level Albuquerque Center
Sat 11:04:33 AM 33.5572 -112.5631 288° West 363 418 38,000  Level Albuquerque Center
Sat 11:05:35 AM 33.5867 -112.6733 288° West 363 418 38,000  Level Albuquerque Center
Sat 11:06:37 AM 33.6228 -112.8122 287° West 365 420 38,000  Level Albuquerque Center
Sat 11:07:38 AM 33.6494 -112.9128 288° West 369 425 38,000  Level Albuquerque Center
Sat 11:08:40 AM 33.6872 -113.0539 288° West 370 426 38,000  Level Albuquerque Center
Sat 11:09:42 AM 33.7175 -113.1722 287° West 371 427 38,000  Level Albuquerque Center
Sat 11:10:44 AM 33.7486 -113.2900 288° West 371 427 38,000  Level Albuquerque Center
Sat 11:11:45 AM 33.7797 -113.4089 288° West 373 429 38,000  Level Albuquerque Center
Sat 11:12:47 AM 33.8094 -113.5275 287° West 372 428 38,000  Level Albuquerque Center
Sat 11:13:49 AM 33.8372 -113.6467 286° West 369 425 38,000  Level Albuquerque Center
Sat 11:14:51 AM 33.8531 -113.7694 279° West 372 428 38,000  Level Albuquerque Center
Sat 11:15:53 AM 33.8736 -113.9144 280° West 369 425 38,000  Level Albuquerque Center
Sat 11:16:55 AM 33.8903 -114.0350 279° West 367 422 38,000  Level Albuquerque Center
Sat 11:17:56 AM 33.9061 -114.1553 279° West 365 420 38,000  Level Albuquerque Center
Sat 11:18:58 AM 33.9214 -114.2631 280° West 361 415 38,000  Level Albuquerque Center
Sat 11:20:00 AM 33.9397 -114.4056 279° West 360 414 38,000  Level Albuquerque Center
Sat 11:21:11 AM 33.9572 -114.5378 279° West 359 413 38,000  Level Los Angeles Center
Sat 11:22:13 AM 33.9731 -114.6542 279° West 355 409 38,000  Level Los Angeles Center
Sat 11:23:14 AM 33.9881 -114.7717 279° West 355 409 38,000  Level Los Angeles Center
Sat 11:24:16 AM 34.0042 -114.8897 279° West 357 411 38,000  Level Los Angeles Center
Sat 11:25:18 AM 34.0208 -115.0297 278° West 355 409 38,000  Level Los Angeles Center
Sat 11:26:19 AM 34.0361 -115.1492 279° West 362 417 38,000  Level Los Angeles Center
Sat 11:27:21 AM 34.0503 -115.2681 278° West 361 415 38,000  Level Los Angeles Center
Sat 11:28:23 AM 34.0661 -115.3872 279° West 361 415 38,000  Level Los Angeles Center
Sat 11:29:25 AM 34.0819 -115.5078 279° West 364 419 38,000  Level Los Angeles Center
Sat 11:30:26 AM 34.0953 -115.6281 278° West 364 419 38,000  Level Los Angeles Center
Sat 11:31:28 AM 34.1114 -115.7725 278° West 363 418 38,000 -629 Level Los Angeles Center
Sat 11:32:30 AM 34.0931 -115.8972 260° West 378 435 36,700 -1,645 Descending Los Angeles Center
Sat 11:33:32 AM 34.0736 -116.0272 260° West 389 448 34,600 -2,146 Descending Los Angeles Center
Sat 11:34:33 AM 34.0544 -116.1636 260° West 407 468 32,300 -2,244 Descending Los Angeles Center
Sat 11:35:35 AM 34.0356 -116.2944 260° West 403 464 30,000 -2,129 Descending Los Angeles Center
Sat 11:36:37 AM 34.0153 -116.4208 259° West 392 451 27,900 -2,177 Descending Los Angeles Center
Sat 11:37:39 AM 33.9994 -116.5681 263° West 376 433 25,500 -2,129 Descending Los Angeles Center
Sat 11:38:41 AM 33.9908 -116.6847 265° West 360 414 23,500 -1,935 Descending Los Angeles Center
Sat 11:39:43 AM 33.9806 -116.7989 264° West 350 403 21,500 -1,935 Descending Los Angeles Center
Sat 11:40:45 AM 33.9714 -116.9128 264° West 345 397 19,500 -2,043 Descending Los Angeles Center
Sat 11:41:17 AM 33.9667 -116.9833 265° West 335 386 18,300 -1,630 Descending Southern California TRACON
Sat 11:42:17 AM 33.9500 -117.1000 260° West 337 388 17,000 -850 Descending Southern California TRACON
Sat 11:43:17 AM 33.9500 -117.2167 270° West 337 388 16,600 -700 Descending Southern California TRACON
Sat 11:44:17 AM 33.9333 -117.3167 259° West 342 394 15,600 -1,550 Descending Southern California TRACON
Sat 11:45:17 AM 33.9500 -117.4333 280° West 327 376 13,500 -2,211 Descending Southern California TRACON
Sat 11:46:11 AM 33.9833 -117.5167 296° West 314 361 11,400 -1,700 Descending Southern California TRACON
Sat 11:47:17 AM 34.0167 -117.6167 292° West 322 371 10,100 -694 Descending Southern California TRACON
Sat 11:48:12 AM 34.0000 -117.7000 256° West 275 316 10,000 -730 Descending Southern California TRACON
Sat 11:49:12 AM 34.0000 -117.8000 270° West 273 314 8,700 -1,429 Descending Southern California TRACON
Sat 11:50:18 AM 33.9833 -117.9000 259° West 281 323 7,000 -1,381 Descending Southern California TRACON
Sat 11:51:18 AM 33.9833 -117.9833 270° West 275 316 5,800 -1,053 Descending Southern California TRACON
Sat 11:52:12 AM 33.9667 -118.0667 256° West 264 304 5,000 -771 Descending Southern California TRACON
Sat 11:53:07 AM 33.9619 -118.1328 265° West 251 289 4,400 -655 Descending Los Angeles Center

Login

Don't have an account? Register now (free) for customized features, flight alerts, and more!